Time;durP1;ratioP1;P1;durP2;ratioP2;P2;SDS_P1;SDS_P2;PMS_P1;PMS_P2;Temp;Humidity;BMP_temperature;BMP_pressure;BME280_temperature;BME280_humidity;BME280_pressure;Samples;Min_cycle;Max_cycle;Signal;HPM_P1;HPM_P2
2023/01/07 00:02:56;;;;;;;36.22;20.58;;;10.50;86.60;;;;;;10825912;33;20039;-73
2023/01/07 00:08:59;;;;;;;25.33;16.90;;;10.50;86.50;;;;;;10825713;33;20394;-73
2023/01/07 00:15:01;;;;;;;29.80;17.85;;;10.50;86.60;;;;;;10825700;33;20016;-73
2023/01/07 00:21:05;;;;;;;24.58;16.83;;;10.50;86.50;;;;;;10813279;27;20337;-73
2023/01/07 00:27:07;;;;;;;24.37;14.75;;;10.40;86.40;;;;;;10862312;32;20046;-73
2023/01/07 00:33:13;;;;;;;29.95;17.35;;;10.40;86.40;;;;;;10862022;32;20032;-73
2023/01/07 00:39:18;;;;;;;24.45;15.13;;;10.40;86.70;;;;;;10860228;32;20055;-74
2023/01/07 00:45:22;;;;;;;19.10;12.20;;;10.60;86.90;;;;;;10861820;32;20333;-74
2023/01/07 00:51:24;;;;;;;15.82;10.00;;;10.80;87.00;;;;;;10861766;32;20023;-73
2023/01/07 00:57:26;;;;;;;19.33;11.52;;;10.80;87.00;;;;;;10861562;32;20420;-74
2023/01/07 01:03:29;;;;;;;19.58;12.57;;;10.80;87.00;;;;;;10861344;32;20333;-74
2023/01/07 01:09:32;;;;;;;26.87;17.05;;;10.60;86.60;;;;;;10861151;32;20046;-73
2023/01/07 01:15:34;;;;;;;33.72;23.05;;;10.50;86.30;;;;;;10861075;32;20015;-74
2023/01/07 01:21:38;;;;;;;37.28;21.25;;;10.30;85.20;;;;;;10843934;32;20027;-73
2023/01/07 01:27:41;;;;;;;31.73;20.17;;;10.20;85.60;;;;;;10860861;32;20008;-73
2023/01/07 01:33:43;;;;;;;28.00;17.90;;;10.20;85.70;;;;;;10860559;32;20012;-73
2023/01/07 01:39:45;;;;;;;21.70;13.10;;;10.20;86.00;;;;;;10847125;32;20067;-74
2023/01/07 01:45:48;;;;;;;24.65;14.38;;;10.30;86.10;;;;;;10860337;32;20295;-74
2023/01/07 01:52:02;;;;;;;28.25;20.23;;;10.30;86.20;;;;;;10863837;32;20406;-74
2023/01/07 01:58:23;;;;;;;21.25;11.98;;;10.30;86.20;;;;;;10866524;32;20008;-73
2023/01/07 02:04:26;;;;;;;18.20;10.88;;;10.20;86.10;;;;;;10866339;32;20059;-74
2023/01/07 02:10:31;;;;;;;22.83;13.77;;;10.20;86.20;;;;;;10866255;32;20011;-74
2023/01/07 02:16:53;;;;;;;24.17;12.00;;;10.20;86.40;;;;;;10866016;32;20024;-73
2023/01/07 02:23:13;;;;;;;28.77;15.52;;;10.20;86.30;;;;;;10865837;32;20020;-74
2023/01/07 02:29:37;;;;;;;23.15;14.05;;;10.20;86.20;;;;;;10852023;32;20074;-74
2023/01/07 02:35:59;;;;;;;28.58;19.08;;;10.20;86.10;;;;;;10852277;32;20199;-73
2023/01/07 02:42:11;;;;;;;34.97;21.65;;;10.20;85.80;;;;;;10855381;32;20375;-73
2023/01/07 02:48:16;;;;;;;24.17;14.25;;;10.10;86.00;;;;;;10855034;32;20012;-73
2023/01/07 02:54:26;;;;;;;26.12;16.65;;;10.20;86.20;;;;;;10855120;32;20035;-73
2023/01/07 03:00:40;;;;;;;26.10;18.02;;;10.20;86.30;;;;;;10854466;32;20023;-73
2023/01/07 03:07:01;;;;;;;29.02;17.52;;;10.20;86.20;;;;;;10855448;32;20016;-74
2023/01/07 03:13:09;;;;;;;22.70;14.70;;;10.10;86.00;;;;;;10854336;32;20058;-73
2023/01/07 03:19:16;;;;;;;29.12;17.58;;;10.00;86.00;;;;;;10864825;32;20191;-73
2023/01/07 03:25:20;;;;;;;20.40;13.40;;;10.10;86.10;;;;;;10863980;32;20054;-73
2023/01/07 03:31:26;;;;;;;36.05;17.65;;;10.10;86.20;;;;;;10863813;32;20432;-73
2023/01/07 03:37:29;;;;;;;17.90;12.15;;;10.10;86.30;;;;;;10863708;32;20020;-74
2023/01/07 03:43:33;;;;;;;31.27;17.00;;;10.20;86.40;;;;;;10850083;32;20050;-74
2023/01/07 03:49:36;;;;;;;23.45;13.57;;;10.20;86.30;;;;;;10863300;32;20330;-74
2023/01/07 03:55:38;;;;;;;18.33;11.02;;;10.10;86.50;;;;;;10863216;32;20023;-73
2023/01/07 04:01:40;;;;;;;20.73;11.35;;;10.10;86.50;;;;;;10862974;32;20008;-73
2023/01/07 04:07:43;;;;;;;21.67;10.52;;;10.10;86.60;;;;;;10862794;32;20020;-73
2023/01/07 04:13:47;;;;;;;19.40;11.82;;;10.20;86.70;;;;;;10862536;32;20341;-73
2023/01/07 04:19:49;;;;;;;19.55;10.02;;;10.20;86.80;;;;;;10862539;32;20023;-73
2023/01/07 04:25:51;;;;;;;16.67;10.52;;;10.20;86.70;;;;;;10862448;32;20039;-74
2023/01/07 04:31:53;;;;;;;17.00;9.35;;;10.20;87.00;;;;;;10849177;32;20020;-73
2023/01/07 04:37:55;;;;;;;21.55;13.65;;;10.30;87.00;;;;;;10862117;32;20085;-73
2023/01/07 04:43:57;;;;;;;18.62;9.82;;;10.20;87.00;;;;;;10861867;32;20325;-73
2023/01/07 04:50:00;;;;;;;16.95;10.73;;;10.20;87.00;;;;;;10861694;32;20042;-74
2023/01/07 04:56:05;;;;;;;20.27;12.37;;;10.20;87.10;;;;;;10848496;32;20015;-74
2023/01/07 05:02:07;;;;;;;9.98;5.85;;;10.20;87.20;;;;;;10861440;32;20012;-74
2023/01/07 05:08:09;;;;;;;14.73;8.60;;;10.30;87.10;;;;;;10861328;32;20449;-74
2023/01/07 05:14:12;;;;;;;16.23;9.63;;;10.20;87.10;;;;;;10857144;32;20381;-73
2023/01/07 05:20:15;;;;;;;20.30;12.32;;;10.20;87.20;;;;;;10860961;32;20331;-73
2023/01/07 05:26:17;;;;;;;21.87;13.45;;;10.30;87.20;;;;;;10863987;32;20295;-74
2023/01/07 05:32:19;;;;;;;19.77;11.43;;;10.20;87.10;;;;;;10867328;32;20023;-73
2023/01/07 05:38:22;;;;;;;22.73;14.05;;;10.20;87.30;;;;;;10850097;32;20299;-73
2023/01/07 05:44:25;;;;;;;10.60;6.05;;;10.30;87.30;;;;;;10867093;32;20329;-73
2023/01/07 05:50:27;;;;;;;18.45;12.02;;;10.30;87.00;;;;;;10866825;32;20042;-73
2023/01/07 05:56:29;;;;;;;20.20;11.15;;;10.20;87.20;;;;;;10853477;32;20023;-73
2023/01/07 06:02:31;;;;;;;13.82;7.35;;;10.20;87.20;;;;;;10866510;32;20039;-74
2023/01/07 06:08:37;;;;;;;17.30;10.10;;;10.20;87.20;;;;;;10853133;32;20042;-74
2023/01/07 06:14:40;;;;;;;14.77;9.48;;;10.10;87.30;;;;;;10866151;32;20012;-73
2023/01/07 06:20:42;;;;;;;19.25;10.70;;;10.10;87.50;;;;;;10861976;32;20050;-73
2023/01/07 06:26:44;;;;;;;13.48;7.30;;;10.20;87.30;;;;;;10865388;32;20038;-73
2023/01/07 06:32:46;;;;;;;12.10;8.68;;;10.20;87.30;;;;;;10851194;32;20070;-72
2023/01/07 06:38:49;;;;;;;16.15;8.50;;;10.10;87.50;;;;;;10864380;32;20012;-73
2023/01/07 06:44:53;;;;;;;15.73;10.68;;;10.20;87.50;;;;;;10865210;32;20028;-72
2023/01/07 06:50:55;;;;;;;17.67;8.90;;;10.20;87.40;;;;;;10861513;32;20016;-73
2023/01/07 06:56:57;;;;;;;12.80;8.25;;;10.20;87.50;;;;;;10864928;32;20020;-72
2023/01/07 07:02:59;;;;;;;17.52;9.43;;;10.20;87.50;;;;;;10864733;32;20414;-73
2023/01/07 07:09:01;;;;;;;20.17;12.02;;;10.10;87.50;;;;;;10864396;32;20431;-73
2023/01/07 07:15:05;;;;;;;16.70;10.10;;;10.10;87.60;;;;;;10864373;32;20319;-73
2023/01/07 07:21:08;;;;;;;24.75;14.38;;;10.10;87.60;;;;;;10864132;32;20046;-73
2023/01/07 07:27:13;;;;;;;15.52;9.50;;;10.20;87.60;;;;;;10850840;32;20342;-73
2023/01/07 07:33:17;;;;;;;16.75;10.32;;;10.20;87.50;;;;;;10863746;32;20027;-73
2023/01/07 07:39:20;;;;;;;17.40;11.05;;;10.20;87.60;;;;;;10861802;32;20042;-72
2023/01/07 07:45:22;;;;;;;27.13;16.40;;;10.20;87.70;;;;;;10863458;32;20042;-73
2023/01/07 07:51:24;;;;;;;33.30;21.55;;;10.30;87.70;;;;;;10862860;32;20019;-73
2023/01/07 07:57:26;;;;;;;21.70;14.10;;;10.30;87.60;;;;;;10862792;32;20059;-72
2023/01/07 08:03:27;;;;;;;25.20;15.52;;;10.20;87.60;;;;;;10827890;32;20019;-72
2023/01/07 08:09:29;;;;;;;33.58;21.67;;;10.20;87.80;;;;;;10825622;33;20025;-73
2023/01/07 08:15:34;;;;;;;29.00;20.80;;;10.20;87.80;;;;;;10825458;33;20386;-73
2023/01/07 08:21:36;;;;;;;25.67;17.98;;;10.20;87.80;;;;;;10750343;27;2197851;-73
2023/01/07 08:27:38;;;;;;;27.67;16.95;;;10.20;87.80;;;;;;10784559;33;20386;-72
2023/01/07 08:33:40;;;;;;;23.73;16.75;;;10.20;87.80;;;;;;10838544;32;20443;-73
2023/01/07 08:39:42;;;;;;;25.77;16.83;;;10.30;87.70;;;;;;10788190;33;20021;-73
2023/01/07 08:45:48;;;;;;;18.65;10.80;;;10.20;87.60;;;;;;10787838;33;20076;-72
2023/01/07 08:51:50;;;;;;;24.52;17.55;;;10.30;87.60;;;;;;10787736;33;20024;-72
2023/01/07 08:57:52;;;;;;;26.62;18.02;;;10.30;87.70;;;;;;10829533;32;20032;-72
2023/01/07 09:03:54;;;;;;;25.33;15.57;;;10.30;87.30;;;;;;10813863;32;20054;-73
2023/01/07 09:09:56;;;;;;;31.15;18.08;;;10.20;87.40;;;;;;10808409;32;20071;-73
2023/01/07 09:15:59;;;;;;;28.23;16.85;;;10.30;87.30;;;;;;10749375;33;20317;-73
2023/01/07 09:22:01;;;;;;;35.20;22.48;;;10.40;87.20;;;;;;10774910;33;20063;-73
2023/01/07 09:28:03;;;;;;;23.52;15.45;;;10.60;87.10;;;;;;10833133;32;20363;-73
2023/01/07 09:34:05;;;;;;;42.13;25.65;;;10.60;86.90;;;;;;10837172;32;20028;-73
2023/01/07 09:40:34;;;;;;;31.45;18.48;;;10.80;87.00;;;;;;10786740;33;20393;-73
2023/01/07 09:46:37;;;;;;;30.12;21.27;;;10.90;86.70;;;;;;10792068;32;20460;-73
2023/01/07 09:52:52;;;;;;;35.00;21.05;;;10.90;86.80;;;;;;10788453;33;20051;-73
2023/01/07 09:58:56;;;;;;;33.05;21.08;;;10.90;86.40;;;;;;10786252;33;20013;-73
2023/01/07 10:05:26;;;;;;;26.25;16.25;;;11.00;86.30;;;;;;10824276;32;20055;-73
2023/01/07 10:12:08;;;;;;;27.05;17.55;;;11.10;86.30;;;;;;10838556;32;20028;-73
2023/01/07 10:18:31;;;;;;;35.45;23.15;;;11.20;86.10;;;;;;10841967;32;20410;-73
2023/01/07 10:24:38;;;;;;;38.75;25.67;;;11.20;85.70;;;;;;10864377;32;20023;-73
2023/01/07 10:30:45;;;;;;;35.92;22.08;;;11.20;85.00;;;;;;10864139;32;20062;-73
2023/01/07 10:37:06;;;;;;;41.08;28.05;;;11.20;84.90;;;;;;10867756;32;20077;-73
2023/01/07 10:43:22;;;;;;;36.65;23.60;;;11.20;84.20;;;;;;10830902;32;20027;-73
2023/01/07 10:49:54;;;;;;;42.38;26.77;;;11.30;84.40;;;;;;10817743;32;20456;-73
2023/01/07 10:56:27;;;;;;;32.28;20.83;;;11.30;84.50;;;;;;10761175;32;20060;-73
2023/01/07 11:02:29;;;;;;;44.13;29.77;;;11.40;84.20;;;;;;10816968;32;20028;-73
2023/01/07 11:08:39;;;;;;;32.83;21.20;;;11.50;84.40;;;;;;10804155;32;20082;-72
2023/01/07 11:14:42;;;;;;;30.65;20.48;;;11.40;84.30;;;;;;10754018;33;20445;-72
2023/01/07 11:20:50;;;;;;;27.05;17.98;;;11.50;84.50;;;;;;10778509;32;20027;-73
2023/01/07 11:27:12;;;;;;;29.55;20.12;;;11.60;84.50;;;;;;10906621;32;20353;-73
2023/01/07 11:33:22;;;;;;;32.58;23.52;;;11.70;84.00;;;;;;10908080;32;20015;-72
2023/01/07 11:39:28;;;;;;;32.83;21.42;;;11.70;83.80;;;;;;10906787;32;20054;-72
2023/01/07 11:45:55;;;;;;;26.80;16.05;;;11.70;83.80;;;;;;10918119;32;20019;-74
2023/01/07 11:51:58;;;;;;;29.17;17.30;;;11.70;84.10;;;;;;10917797;32;20405;-74
2023/01/07 11:58:00;;;;;;;29.08;20.00;;;11.70;84.30;;;;;;10918405;32;20054;-74
2023/01/07 12:04:17;;;;;;;35.83;21.70;;;11.70;82.90;;;;;;10905785;32;20019;-74
2023/01/07 12:10:31;;;;;;;26.48;17.60;;;11.70;83.00;;;;;;10905552;32;20050;-74
2023/01/07 12:16:37;;;;;;;27.17;18.00;;;11.70;82.20;;;;;;10906038;32;20326;-74
2023/01/07 12:23:10;;;;;;;36.65;23.85;;;11.90;82.10;;;;;;10831644;32;20033;-73
2023/01/07 12:29:12;;;;;;;25.35;16.25;;;12.00;81.20;;;;;;10801450;32;20059;-74
2023/01/07 12:35:26;;;;;;;28.62;20.62;;;12.00;81.30;;;;;;10751399;33;20406;-74
2023/01/07 12:41:33;;;;;;;27.98;17.67;;;11.90;81.00;;;;;;10750041;33;20032;-74
2023/01/07 12:47:40;;;;;;;30.12;16.98;;;11.80;81.20;;;;;;10750799;33;20051;-74
2023/01/07 12:54:11;;;;;;;27.40;17.33;;;11.70;81.30;;;;;;10800171;32;20059;-74
2023/01/07 13:00:25;;;;;;;22.15;14.30;;;11.70;81.70;;;;;;10776317;33;20067;-74
2023/01/07 13:06:52;;;;;;;24.90;15.27;;;11.60;81.50;;;;;;10787952;33;20024;-74
2023/01/07 13:12:59;;;;;;;21.45;13.98;;;11.70;82.00;;;;;;10787955;33;20457;-74
2023/01/07 13:19:01;;;;;;;16.30;11.07;;;11.70;82.10;;;;;;10788146;33;20043;-74
2023/01/07 13:25:41;;;;;;;15.45;10.38;;;11.70;82.40;;;;;;10788025;33;20032;-74
2023/01/07 13:32:04;;;;;;;21.60;11.70;;;11.90;82.40;;;;;;10773078;33;20058;-72
2023/01/07 13:38:28;;;;;;;15.40;10.02;;;12.20;82.40;;;;;;10808031;32;20160;-73
2023/01/07 13:44:51;;;;;;;25.08;14.20;;;12.30;82.30;;;;;;10757681;33;20032;-74
2023/01/07 13:51:12;;;;;;;21.23;12.52;;;12.50;82.10;;;;;;10792898;33;20084;-73
2023/01/07 13:57:41;;;;;;;20.08;13.70;;;12.50;81.80;;;;;;10793015;33;20024;-74
2023/01/07 14:04:05;;;;;;;20.48;12.82;;;12.30;82.10;;;;;;10793108;32;20421;-74
2023/01/07 14:10:25;;;;;;;16.75;10.65;;;12.20;82.30;;;;;;10792425;33;20070;-74
2023/01/07 14:16:38;;;;;;;22.73;16.30;;;12.00;82.30;;;;;;10788519;33;20048;-74
2023/01/07 14:22:47;;;;;;;16.20;9.77;;;11.90;82.50;;;;;;10787500;33;20036;-74
2023/01/07 14:28:59;;;;;;;18.77;12.45;;;11.90;82.60;;;;;;10791342;33;20024;-74
2023/01/07 14:35:20;;;;;;;22.80;12.27;;;11.80;82.70;;;;;;10789891;33;20361;-74
2023/01/07 14:41:23;;;;;;;14.10;9.60;;;11.80;82.90;;;;;;10842041;32;20066;-75
2023/01/07 14:47:43;;;;;;;16.83;10.68;;;11.90;83.00;;;;;;10790695;33;20113;-74
2023/01/07 14:53:51;;;;;;;17.67;10.85;;;11.80;83.00;;;;;;10791104;33;20292;-74
2023/01/07 14:59:59;;;;;;;14.90;8.40;;;11.90;83.20;;;;;;10790176;33;20025;-74
2023/01/07 15:06:21;;;;;;;17.70;9.20;;;11.80;83.30;;;;;;10838588;32;20020;-74
2023/01/07 15:18:53;;;;;;;16.75;7.72;;;11.70;83.40;;;;;;10790293;33;20047;-74
2023/01/07 15:25:34;;;;;;;11.55;7.32;;;11.70;83.60;;;;;;10790187;33;20047;-74
2023/01/07 15:31:45;;;;;;;12.35;7.30;;;11.70;83.60;;;;;;10712903;33;20051;-74
2023/01/07 15:37:49;;;;;;;12.55;8.10;;;11.60;83.80;;;;;;10712947;33;20057;-74
2023/01/07 15:43:53;;;;;;;12.13;7.47;;;11.70;84.00;;;;;;10700444;33;20032;-74
2023/01/07 15:49:55;;;;;;;17.02;10.63;;;11.60;84.00;;;;;;10712618;33;20388;-74
2023/01/07 15:56:00;;;;;;;14.80;9.32;;;11.60;84.20;;;;;;10700169;33;20374;-74
2023/01/07 16:02:26;;;;;;;12.18;8.57;;;11.60;84.30;;;;;;10770828;33;20028;-73
2023/01/07 16:08:31;;;;;;;20.20;10.55;;;11.50;84.30;;;;;;10788315;33;20013;-74
2023/01/07 16:14:36;;;;;;;15.93;10.30;;;11.50;84.20;;;;;;10824199;32;20440;-74
2023/01/07 16:21:11;;;;;;;14.20;9.07;;;11.40;84.30;;;;;;10798000;27;20071;-73
2023/01/07 16:27:14;;;;;;;20.33;12.65;;;11.50;84.40;;;;;;10807820;33;20062;-73
2023/01/07 16:33:20;;;;;;;20.35;12.32;;;11.40;84.30;;;;;;10824580;33;20028;-73
2023/01/07 16:39:34;;;;;;;20.40;11.63;;;11.30;84.20;;;;;;10825254;33;20048;-73
2023/01/07 16:45:37;;;;;;;36.90;23.45;;;11.20;84.10;;;;;;10795600;32;20058;-73
2023/01/07 16:51:51;;;;;;;28.12;18.27;;;11.20;84.10;;;;;;10806442;32;20040;-73
2023/01/07 16:57:53;;;;;;;23.27;13.93;;;11.20;84.00;;;;;;10823708;33;20035;-73
2023/01/07 17:03:59;;;;;;;22.25;14.13;;;11.20;84.10;;;;;;10824711;33;20046;-73
2023/01/07 17:10:01;;;;;;;20.88;12.40;;;11.20;84.10;;;;;;10824459;33;20051;-73
2023/01/07 17:16:23;;;;;;;21.83;14.77;;;11.20;84.10;;;;;;10822165;33;20032;-73
2023/01/07 17:22:31;;;;;;;18.83;14.18;;;11.20;84.30;;;;;;10813114;32;20040;-73
2023/01/07 17:28:45;;;;;;;20.60;13.30;;;11.10;84.40;;;;;;10824087;32;20345;-74
2023/01/07 17:34:48;;;;;;;20.10;13.05;;;11.10;84.50;;;;;;10805198;32;20063;-74
2023/01/07 17:40:51;;;;;;;18.40;10.93;;;11.20;84.70;;;;;;10793505;33;20382;-74
2023/01/07 17:46:53;;;;;;;16.90;10.73;;;11.10;84.70;;;;;;10792680;33;20016;-74
2023/01/07 17:52:55;;;;;;;12.27;7.93;;;11.00;84.80;;;;;;10774887;33;20420;-74
2023/01/07 17:58:58;;;;;;;19.67;11.70;;;10.90;85.00;;;;;;10792752;33;20048;-74
2023/01/07 18:05:00;;;;;;;20.23;12.57;;;10.90;85.10;;;;;;10792640;33;20414;-74
2023/01/07 18:17:23;;;;;;;15.00;10.90;;;10.90;85.30;;;;;;10792994;33;20043;-74
2023/01/07 18:23:25;;;;;;;21.95;15.05;;;10.90;85.30;;;;;;10792141;33;20016;-74
2023/01/07 18:29:28;;;;;;;17.42;11.00;;;10.90;85.50;;;;;;10778715;33;20441;-73
2023/01/07 18:35:30;;;;;;;19.40;14.20;;;10.80;85.60;;;;;;10777998;33;20429;-74
2023/01/07 18:41:32;;;;;;;17.73;12.82;;;10.80;85.60;;;;;;10791371;33;20304;-74
2023/01/07 18:47:35;;;;;;;24.63;14.43;;;10.80;85.70;;;;;;10778100;33;20036;-73
2023/01/07 18:53:38;;;;;;;17.85;12.40;;;10.80;85.70;;;;;;10791011;33;20021;-74
2023/01/07 18:59:40;;;;;;;19.85;11.70;;;10.70;85.70;;;;;;10777694;33;20054;-74
2023/01/07 19:05:43;;;;;;;15.90;10.23;;;10.70;85.80;;;;;;10790980;33;20039;-73
2023/01/07 19:11:45;;;;;;;20.88;11.80;;;10.70;86.00;;;;;;10790764;33;20017;-73
2023/01/07 19:17:47;;;;;;;19.55;12.85;;;10.80;86.10;;;;;;10766187;32;20403;-73
2023/01/07 19:23:49;;;;;;;18.30;12.80;;;10.70;86.10;;;;;;10790446;33;20046;-73
2023/01/07 19:29:52;;;;;;;21.92;13.68;;;10.70;86.00;;;;;;10776985;33;20339;-73
2023/01/07 19:36:26;;;;;;;27.62;18.48;;;10.70;86.00;;;;;;10790135;33;20031;-73
2023/01/07 19:42:30;;;;;;;31.08;21.83;;;10.70;86.20;;;;;;10642424;32;20068;-74
2023/01/07 19:48:32;;;;;;;27.30;18.73;;;10.70;86.20;;;;;;10641204;33;20052;-73
2023/01/07 19:54:34;;;;;;;23.75;15.50;;;10.70;86.20;;;;;;10641053;33;20045;-73
2023/01/07 20:00:37;;;;;;;22.87;15.15;;;10.70;86.10;;;;;;10640755;33;20026;-73
2023/01/07 20:06:40;;;;;;;20.98;14.40;;;10.60;86.20;;;;;;10640476;33;20056;-73
2023/01/07 20:12:42;;;;;;;17.55;12.40;;;10.70;86.20;;;;;;10640257;33;20408;-73
2023/01/07 20:18:49;;;;;;;29.98;15.50;;;10.60;86.20;;;;;;10773488;33;20021;-73
2023/01/07 20:24:51;;;;;;;27.33;17.35;;;10.70;86.20;;;;;;10788716;33;20425;-73
2023/01/07 20:30:53;;;;;;;21.48;16.37;;;10.60;86.20;;;;;;10788489;33;20047;-73
2023/01/07 20:36:56;;;;;;;22.90;15.15;;;10.60;86.20;;;;;;10788349;33;20016;-73
2023/01/07 20:42:58;;;;;;;14.43;9.38;;;10.70;86.20;;;;;;10772653;33;20063;-74
2023/01/07 20:49:01;;;;;;;31.42;18.15;;;10.60;86.00;;;;;;10786748;33;20039;-73
2023/01/07 20:55:04;;;;;;;23.98;15.25;;;10.50;86.00;;;;;;10787004;33;20304;-73
2023/01/07 21:01:14;;;;;;;21.95;13.38;;;10.50;86.20;;;;;;10771027;33;20378;-74
2023/01/07 21:07:16;;;;;;;18.52;13.20;;;10.60;86.20;;;;;;10773988;33;20330;-73
2023/01/07 21:13:20;;;;;;;16.87;11.43;;;10.50;86.20;;;;;;10787384;33;20032;-74
2023/01/07 21:19:22;;;;;;;22.20;12.07;;;10.50;86.30;;;;;;10787414;33;20020;-74
2023/01/07 21:25:24;;;;;;;18.10;11.20;;;10.60;86.30;;;;;;10773979;33;20031;-73
2023/01/07 21:31:27;;;;;;;17.35;10.60;;;10.60;86.30;;;;;;10785509;33;20051;-73
2023/01/07 21:37:29;;;;;;;25.05;12.73;;;10.50;86.40;;;;;;10787168;33;20039;-73
2023/01/07 21:43:31;;;;;;;24.08;17.77;;;10.60;86.40;;;;;;10773528;33;20048;-74
2023/01/07 21:49:34;;;;;;;20.88;14.50;;;10.60;86.40;;;;;;10786776;33;20012;-73
2023/01/07 21:55:38;;;;;;;21.20;15.48;;;10.60;86.60;;;;;;10783004;33;20028;-74
2023/01/07 22:01:40;;;;;;;18.62;13.73;;;10.60;86.50;;;;;;10786523;33;20017;-74
2023/01/07 22:07:42;;;;;;;24.35;17.70;;;10.60;86.60;;;;;;10788815;33;20054;-73
2023/01/07 22:13:48;;;;;;;39.78;22.48;;;10.60;86.60;;;;;;10792493;33;20020;-73
2023/01/07 22:19:50;;;;;;;22.40;15.10;;;10.60;86.60;;;;;;10792256;33;20016;-74
2023/01/07 22:25:52;;;;;;;24.73;15.60;;;10.60;86.60;;;;;;10779051;33;20043;-73
2023/01/07 22:31:55;;;;;;;19.55;14.05;;;10.60;86.60;;;;;;10791769;33;20047;-73
2023/01/07 22:38:00;;;;;;;17.75;11.75;;;10.60;86.60;;;;;;10791847;33;20012;-73
2023/01/07 22:44:24;;;;;;;20.12;14.68;;;10.60;86.70;;;;;;10791578;33;20025;-73
2023/01/07 22:50:27;;;;;;;23.33;14.18;;;10.60;86.70;;;;;;10791386;33;20031;-73
2023/01/07 22:56:29;;;;;;;21.25;15.63;;;10.60;86.80;;;;;;10791278;33;20440;-73
2023/01/07 23:02:31;;;;;;;23.73;17.55;;;10.60;86.80;;;;;;10791196;33;20016;-73
2023/01/07 23:08:35;;;;;;;25.85;19.35;;;10.60;86.80;;;;;;10790053;33;20020;-73
2023/01/07 23:14:37;;;;;;;20.42;16.15;;;10.60;87.00;;;;;;10790730;33;20017;-73
2023/01/07 23:20:50;;;;;;;21.30;15.68;;;10.60;87.10;;;;;;10789704;33;20033;-73
2023/01/07 23:26:53;;;;;;;31.62;25.23;;;10.60;87.10;;;;;;10790245;33;20035;-73
2023/01/07 23:32:56;;;;;;;28.65;18.90;;;10.60;87.00;;;;;;10817242;33;20024;-73
2023/01/07 23:39:09;;;;;;;23.10;15.07;;;10.50;87.00;;;;;;10826913;33;20035;-73
2023/01/07 23:45:11;;;;;;;23.20;15.73;;;10.60;87.10;;;;;;10826686;33;20021;-73
2023/01/07 23:51:16;;;;;;;22.25;15.70;;;10.60;87.10;;;;;;10826532;33;20023;-73
2023/01/07 23:57:18;;;;;;;22.15;14.77;;;10.50;87.10;;;;;;10826268;33;20043;-74
